createdAt,value
2024-05-09T00:00:01.273Z,0.00
2024-05-09T00:01:01.308Z,0.00
2024-05-09T00:02:01.253Z,0.00
2024-05-09T00:03:01.274Z,0.00
2024-05-09T00:04:01.266Z,0.00
2024-05-09T00:05:01.341Z,0.00
2024-05-09T00:06:01.432Z,0.00
2024-05-09T00:07:01.176Z,0.00
2024-05-09T00:08:01.356Z,0.00
2024-05-09T00:09:01.163Z,0.00
2024-05-09T00:10:01.165Z,0.00
2024-05-09T00:11:01.241Z,0.00
2024-05-09T00:12:01.285Z,0.00
2024-05-09T00:13:01.129Z,0.00
2024-05-09T00:14:01.157Z,0.00
2024-05-09T00:15:01.104Z,0.00
2024-05-09T00:16:01.076Z,0.00
2024-05-09T00:17:01.144Z,0.00
2024-05-09T00:18:01.730Z,0.00
2024-05-09T00:19:01.119Z,0.00
2024-05-09T00:20:01.099Z,0.00
2024-05-09T00:21:01.180Z,0.00
2024-05-09T00:22:01.000Z,0.00
2024-05-09T00:23:01.061Z,0.00
2024-05-09T00:24:00.983Z,0.00
2024-05-09T00:25:00.974Z,0.00
2024-05-09T00:26:01.074Z,0.00
2024-05-09T00:27:00.984Z,0.00
2024-05-09T00:28:00.988Z,0.00
2024-05-09T00:29:00.969Z,0.00
2024-05-09T00:30:00.916Z,0.00
2024-05-09T00:31:00.905Z,0.00
2024-05-09T00:32:01.047Z,0.00
2024-05-09T00:33:01.162Z,0.00
2024-05-09T00:34:01.188Z,0.00
2024-05-09T00:35:00.899Z,0.00
2024-05-09T00:36:00.857Z,0.00
2024-05-09T00:37:00.847Z,0.00
2024-05-09T00:38:01.338Z,0.00
2024-05-09T00:39:00.821Z,0.00
2024-05-09T00:40:00.816Z,0.00
2024-05-09T00:41:00.999Z,0.00
2024-05-09T00:42:00.790Z,0.00
2024-05-09T00:43:00.794Z,0.00
2024-05-09T00:44:00.784Z,0.00
2024-05-09T00:45:00.760Z,0.00
2024-05-09T00:46:00.749Z,0.00
2024-05-09T00:47:00.809Z,0.00
2024-05-09T00:48:01.107Z,0.00
2024-05-09T00:49:00.834Z,0.00
2024-05-09T00:50:00.740Z,0.00
2024-05-09T00:51:00.848Z,0.00
2024-05-09T00:52:00.688Z,0.00
2024-05-09T00:53:00.800Z,0.00
2024-05-09T00:54:00.675Z,0.00
2024-05-09T00:55:00.689Z,0.00
2024-05-09T00:56:00.749Z,0.00
2024-05-09T00:57:00.619Z,0.00
2024-05-09T00:58:00.629Z,0.00
2024-05-09T00:59:00.661Z,0.00
2024-05-09T01:00:00.630Z,0.00
2024-05-09T01:01:00.691Z,0.00
2024-05-09T01:02:00.639Z,0.00
2024-05-09T01:03:00.704Z,0.00
2024-05-09T01:04:00.659Z,0.00
2024-05-09T01:05:00.685Z,0.00
2024-05-09T01:06:00.562Z,0.00
2024-05-09T01:07:00.534Z,0.00
2024-05-09T01:08:00.590Z,0.00
2024-05-09T01:09:00.486Z,0.00
2024-05-09T01:10:00.503Z,0.00
2024-05-09T01:11:00.594Z,0.00
2024-05-09T01:12:00.627Z,0.00
2024-05-09T01:13:00.463Z,0.00
2024-05-09T01:14:00.481Z,0.00
2024-05-09T01:15:00.429Z,0.00
2024-05-09T01:16:00.411Z,0.00
2024-05-09T01:17:00.420Z,0.00
2024-05-09T01:18:00.649Z,0.00
2024-05-09T01:19:00.413Z,0.00
2024-05-09T01:20:00.414Z,0.00
2024-05-09T01:21:00.406Z,0.00
2024-05-09T01:22:00.348Z,0.00
2024-05-09T01:23:00.383Z,0.00
2024-05-09T01:24:00.337Z,0.00
2024-05-09T01:25:00.313Z,0.00
2024-05-09T01:26:00.450Z,0.00
2024-05-09T01:27:00.320Z,0.00
2024-05-09T01:28:00.307Z,0.00
2024-05-09T01:29:00.346Z,0.00
2024-05-09T01:30:00.345Z,0.00
2024-05-09T01:31:00.249Z,0.00
2024-05-09T01:32:00.349Z,0.00
2024-05-09T01:33:00.340Z,0.00
2024-05-09T01:34:00.371Z,0.00
2024-05-09T01:35:00.286Z,0.00
2024-05-09T01:36:00.203Z,0.00
2024-05-09T01:37:00.179Z,0.00
2024-05-09T01:38:00.231Z,0.00
2024-05-09T01:39:00.171Z,0.00
2024-05-09T01:40:00.155Z,0.00
2024-05-09T01:41:00.192Z,0.00
2024-05-09T01:42:00.130Z,0.00
2024-05-09T01:43:00.126Z,0.00
2024-05-09T01:44:00.193Z,0.00
2024-05-09T01:45:00.145Z,0.00
2024-05-09T01:46:00.083Z,0.00
2024-05-09T01:47:00.116Z,0.00
2024-05-09T01:48:00.466Z,0.00
2024-05-09T01:49:00.179Z,0.00
2024-05-09T01:50:00.061Z,0.00
2024-05-09T01:51:00.051Z,0.00
2024-05-09T01:52:00.031Z,0.00
2024-05-09T01:53:00.032Z,0.00
2024-05-09T01:53:59.989Z,0.00
2024-05-09T01:55:02.775Z,0.00
2024-05-09T01:55:59.989Z,0.00
2024-05-09T01:56:59.973Z,0.00
2024-05-09T01:57:59.945Z,0.00
2024-05-09T01:58:59.972Z,0.00
2024-05-09T01:59:59.940Z,0.00
2024-05-09T02:00:59.951Z,0.00
2024-05-09T02:02:00.125Z,0.00
2024-05-09T02:03:00.074Z,0.00
2024-05-09T02:04:00.121Z,0.00
2024-05-09T02:04:59.998Z,0.00
2024-05-09T02:05:59.907Z,0.00
2024-05-09T02:06:59.867Z,0.00
2024-05-09T02:07:59.869Z,0.00
2024-05-09T02:08:59.829Z,0.00
2024-05-09T02:09:59.813Z,0.00
2024-05-09T02:10:59.907Z,0.00
2024-05-09T02:11:59.885Z,0.00
2024-05-09T02:12:59.785Z,0.00
2024-05-09T02:13:59.786Z,0.00
2024-05-09T02:14:59.774Z,0.00
2024-05-09T02:15:59.766Z,0.00
2024-05-09T02:16:59.759Z,0.00
2024-05-09T02:17:59.857Z,0.00
2024-05-09T02:18:59.834Z,0.00
2024-05-09T02:19:59.765Z,0.00
2024-05-09T02:20:59.899Z,0.00
2024-05-09T02:21:59.691Z,0.00
2024-05-09T02:22:59.751Z,0.00
2024-05-09T02:23:59.668Z,0.00
2024-05-09T02:24:59.677Z,0.00
2024-05-09T02:25:59.684Z,0.00
2024-05-09T02:26:59.628Z,0.00
2024-05-09T02:27:59.726Z,0.00
2024-05-09T02:28:59.686Z,0.00
2024-05-09T02:29:59.623Z,0.00
2024-05-09T02:30:59.585Z,0.00
2024-05-09T02:31:59.619Z,0.00
2024-05-09T02:32:59.693Z,0.00
2024-05-09T02:33:59.653Z,0.00
2024-05-09T02:34:59.648Z,0.00
2024-05-09T02:35:59.539Z,0.00
2024-05-09T02:36:59.528Z,0.00
2024-05-09T02:37:59.902Z,0.00
2024-05-09T02:38:59.516Z,0.00
2024-05-09T02:39:59.517Z,0.00
2024-05-09T02:40:59.538Z,0.00
2024-05-09T02:41:59.472Z,0.00
2024-05-09T02:42:59.472Z,0.00
2024-05-09T02:43:59.519Z,0.00
2024-05-09T02:44:59.436Z,0.00
2024-05-09T02:45:59.429Z,0.00
2024-05-09T02:46:59.432Z,0.00
2024-05-09T02:47:59.682Z,0.00
2024-05-09T02:48:59.487Z,0.00
2024-05-09T02:49:59.474Z,0.00
2024-05-09T02:50:59.437Z,0.00
2024-05-09T02:51:59.367Z,0.00
2024-05-09T02:52:59.392Z,0.00
2024-05-09T02:53:59.351Z,0.00
2024-05-09T02:54:59.327Z,0.00
2024-05-09T02:55:59.376Z,0.00
2024-05-09T02:56:59.303Z,0.00
2024-05-09T02:57:59.442Z,0.00
2024-05-09T02:58:59.298Z,0.00
2024-05-09T02:59:59.278Z,0.00
2024-05-09T03:00:59.277Z,0.00
2024-05-09T03:01:59.356Z,0.00
2024-05-09T03:02:59.447Z,0.00
2024-05-09T03:03:59.346Z,0.00
2024-05-09T03:04:59.289Z,0.00
2024-05-09T03:05:59.211Z,0.00
2024-05-09T03:06:59.217Z,0.00
2024-05-09T03:07:59.306Z,0.00
2024-05-09T03:08:59.178Z,0.00
2024-05-09T03:09:59.172Z,0.00
2024-05-09T03:10:59.171Z,0.00
2024-05-09T03:11:59.314Z,0.00
2024-05-09T03:12:59.130Z,0.00
2024-05-09T03:13:59.152Z,0.00
2024-05-09T03:14:59.112Z,0.00
2024-05-09T03:15:59.169Z,0.00
2024-05-09T03:16:59.122Z,0.00
2024-05-09T03:17:59.218Z,0.00
2024-05-09T03:18:59.081Z,0.00
2024-05-09T03:19:59.096Z,0.00
2024-05-09T03:20:59.064Z,0.00
2024-05-09T03:21:59.047Z,0.00
2024-05-09T03:22:59.063Z,4.00
2024-05-09T03:23:59.028Z,4.00
2024-05-09T03:24:59.004Z,0.00
2024-05-09T03:25:59.030Z,0.00
2024-05-09T03:26:58.982Z,4.00
2024-05-09T03:27:58.971Z,4.00
2024-05-09T03:28:58.965Z,0.00
2024-05-09T03:29:58.965Z,4.00
2024-05-09T03:30:58.958Z,4.00
2024-05-09T03:31:59.012Z,4.00
2024-05-09T03:32:59.019Z,8.00
2024-05-09T03:33:59.055Z,4.00
2024-05-09T03:34:58.920Z,8.00
2024-05-09T03:35:58.904Z,8.00
2024-05-09T03:36:58.894Z,8.00
2024-05-09T03:37:58.886Z,8.00
2024-05-09T03:38:58.851Z,16.00
2024-05-09T03:39:58.856Z,16.00
2024-05-09T03:40:58.859Z,12.00
2024-05-09T03:41:58.856Z,16.00
2024-05-09T03:42:58.935Z,20.00
2024-05-09T03:43:58.816Z,24.00
2024-05-09T03:44:58.804Z,24.00
2024-05-09T03:45:58.785Z,28.00
2024-05-09T03:46:58.832Z,28.00
2024-05-09T03:47:59.086Z,32.00
2024-05-09T03:48:58.785Z,36.00
2024-05-09T03:49:58.794Z,40.00
2024-05-09T03:50:58.750Z,44.00
2024-05-09T03:51:58.715Z,48.00
2024-05-09T03:52:58.723Z,52.00
2024-05-09T03:53:58.711Z,56.00
2024-05-09T03:54:58.682Z,64.00
2024-05-09T03:55:58.707Z,64.00
2024-05-09T03:56:58.663Z,72.00
2024-05-09T03:57:58.744Z,76.00
2024-05-09T03:58:58.674Z,80.00
2024-05-09T03:59:58.640Z,84.00
2024-05-09T04:00:58.688Z,92.00
2024-05-09T04:01:58.668Z,100.00
2024-05-09T04:02:58.744Z,108.00
2024-05-09T04:03:58.595Z,112.00
2024-05-09T04:04:58.601Z,120.00
2024-05-09T04:05:58.570Z,124.00
2024-05-09T04:06:58.556Z,132.00
2024-05-09T04:07:58.684Z,140.00
2024-05-09T04:08:58.525Z,148.00
2024-05-09T04:09:58.519Z,156.00
2024-05-09T04:10:58.527Z,164.00
2024-05-09T04:11:58.640Z,172.00
2024-05-09T04:12:58.503Z,180.00
2024-05-09T04:13:58.519Z,188.00
2024-05-09T04:14:58.485Z,196.00
2024-05-09T04:15:58.464Z,200.00
2024-05-09T04:16:58.488Z,212.00
2024-05-09T04:17:58.660Z,220.00
2024-05-09T04:18:58.492Z,232.00
2024-05-09T04:19:58.460Z,240.00
2024-05-09T04:20:58.428Z,248.00
2024-05-09T04:21:58.412Z,260.00
2024-05-09T04:22:58.383Z,264.00
2024-05-09T04:23:58.366Z,272.00
2024-05-09T04:24:58.351Z,284.00
2024-05-09T04:25:58.413Z,292.00
2024-05-09T04:26:58.361Z,304.00
2024-05-09T04:27:58.366Z,316.00
2024-05-09T04:28:58.379Z,332.00
2024-05-09T04:29:58.319Z,344.00
2024-05-09T04:30:58.299Z,356.00
2024-05-09T04:31:58.389Z,368.00
2024-05-09T04:32:58.370Z,380.00
2024-05-09T04:33:58.453Z,392.00
2024-05-09T04:34:58.274Z,408.00
2024-05-09T04:35:58.257Z,416.00
2024-05-09T04:36:58.225Z,432.00
2024-05-09T04:37:58.269Z,440.00
2024-05-09T04:38:58.201Z,452.00
2024-05-09T04:39:58.202Z,464.00
2024-05-09T04:40:58.294Z,476.00
2024-05-09T04:41:58.173Z,484.00
2024-05-09T04:42:58.165Z,496.00
2024-05-09T04:43:58.202Z,504.00
2024-05-09T04:44:58.823Z,512.00
2024-05-09T04:45:58.130Z,520.00
2024-05-09T04:46:58.151Z,532.00
2024-05-09T04:47:58.568Z,536.00
2024-05-09T04:48:58.198Z,548.00
2024-05-09T04:49:58.152Z,560.00
2024-05-09T04:50:58.122Z,576.00
2024-05-09T04:51:58.065Z,592.00
2024-05-09T04:52:58.126Z,600.00
2024-05-09T04:53:58.050Z,612.00
2024-05-09T04:54:59.020Z,628.00
2024-05-09T04:55:58.092Z,636.00
2024-05-09T04:56:58.002Z,648.00
2024-05-09T04:57:58.010Z,660.00
2024-05-09T04:58:58.029Z,668.00
2024-05-09T04:59:57.981Z,676.00
2024-05-09T05:00:58.053Z,684.00
2024-05-09T05:01:58.105Z,700.00
2024-05-09T05:02:58.040Z,712.00
2024-05-09T05:03:58.111Z,724.00
2024-05-09T05:04:58.020Z,736.00
2024-05-09T05:05:58.116Z,748.00
2024-05-09T05:07:01.274Z,760.00
2024-05-09T05:07:57.946Z,768.00
2024-05-09T05:08:57.884Z,780.00
2024-05-09T05:09:57.867Z,792.00
2024-05-09T05:10:57.980Z,804.00
2024-05-09T05:11:57.917Z,816.00
2024-05-09T05:12:57.840Z,824.00
2024-05-09T05:13:57.907Z,836.00
2024-05-09T05:14:57.810Z,848.00
2024-05-09T05:15:58.473Z,856.00
2024-05-09T05:16:57.839Z,872.00
2024-05-09T05:17:57.957Z,884.00
2024-05-09T05:18:57.784Z,892.00
2024-05-09T05:19:57.848Z,904.00
2024-05-09T05:20:57.872Z,912.00
2024-05-09T05:21:57.751Z,928.00
2024-05-09T05:22:57.755Z,936.00
2024-05-09T05:23:57.719Z,948.00
2024-05-09T05:24:57.701Z,960.00
2024-05-09T05:25:57.751Z,976.00
2024-05-09T05:26:57.687Z,984.00
2024-05-09T05:27:57.680Z,992.00
2024-05-09T05:28:57.670Z,1004.00
2024-05-09T05:29:57.648Z,1020.00
2024-05-09T05:30:57.641Z,1032.00
2024-05-09T05:31:57.845Z,1036.00
2024-05-09T05:32:57.654Z,1052.00
2024-05-09T05:33:57.637Z,1064.00
2024-05-09T05:34:57.604Z,1072.00
2024-05-09T05:35:57.580Z,1084.00
2024-05-09T05:36:57.586Z,1096.00
2024-05-09T05:37:57.648Z,1100.00
2024-05-09T05:38:57.622Z,1112.00
2024-05-09T05:39:57.552Z,1124.00
2024-05-09T05:40:57.599Z,1136.00
2024-05-09T05:41:57.547Z,1144.00
2024-05-09T05:42:57.514Z,1160.00
2024-05-09T05:43:57.575Z,1168.00
2024-05-09T05:44:57.482Z,1180.00
2024-05-09T05:45:57.496Z,1196.00
2024-05-09T05:46:57.480Z,1208.00
2024-05-09T05:47:57.824Z,1220.00
2024-05-09T05:48:57.531Z,1232.00
2024-05-09T05:49:57.448Z,1248.00
2024-05-09T05:50:58.584Z,1260.00
2024-05-09T05:51:57.422Z,1276.00
2024-05-09T05:52:57.439Z,1288.00
2024-05-09T05:53:57.389Z,1300.00
2024-05-09T05:54:57.387Z,1316.00
2024-05-09T05:55:57.452Z,1336.00
2024-05-09T05:56:57.351Z,1348.00
2024-05-09T05:57:57.347Z,1364.00
2024-05-09T05:58:57.360Z,1380.00
2024-05-09T05:59:57.333Z,1388.00
2024-05-09T06:00:57.339Z,1404.00
2024-05-09T06:01:57.370Z,1420.00
2024-05-09T06:02:57.316Z,1432.00
2024-05-09T06:03:57.368Z,1444.00
2024-05-09T06:04:57.402Z,1456.00
2024-05-09T06:05:57.485Z,1468.00
2024-05-09T06:06:57.240Z,1480.00
2024-05-09T06:07:57.315Z,1492.00
2024-05-09T06:08:57.255Z,1496.00
2024-05-09T06:09:57.214Z,1516.00
2024-05-09T06:10:57.276Z,1508.00
2024-05-09T06:11:57.277Z,1508.00
2024-05-09T06:12:57.178Z,1512.00
2024-05-09T06:13:57.182Z,1524.00
2024-05-09T06:14:57.163Z,1548.00
2024-05-09T06:15:57.150Z,1572.00
2024-05-09T06:16:58.287Z,1600.00
2024-05-09T06:17:57.462Z,1620.00
2024-05-09T06:18:57.304Z,1640.00
2024-05-09T06:19:57.133Z,1652.00
2024-05-09T06:20:57.136Z,1660.00
2024-05-09T06:21:57.089Z,1676.00
2024-05-09T06:22:57.129Z,1676.00
2024-05-09T06:23:57.072Z,1700.00
2024-05-09T06:24:57.045Z,1724.00
2024-05-09T06:25:57.076Z,1740.00
2024-05-09T06:26:57.034Z,1752.00
2024-05-09T06:27:57.044Z,1768.00
2024-05-09T06:28:57.034Z,1792.00
2024-05-09T06:29:56.993Z,1812.00
2024-05-09T06:30:56.988Z,1828.00
2024-05-09T06:31:59.932Z,1836.00
2024-05-09T06:32:57.068Z,1848.00
2024-05-09T06:33:57.058Z,1872.00
2024-05-09T06:34:56.967Z,1892.00
2024-05-09T06:35:56.926Z,1900.00
2024-05-09T06:36:56.933Z,1904.00
2024-05-09T06:37:56.957Z,1904.00
2024-05-09T06:38:56.897Z,1896.00
2024-05-09T06:39:56.879Z,1928.00
2024-05-09T06:40:56.897Z,1956.00
2024-05-09T06:41:56.872Z,1984.00
2024-05-09T06:42:56.861Z,1972.00
2024-05-09T06:43:56.873Z,1980.00
2024-05-09T06:44:56.832Z,1972.00
2024-05-09T06:45:56.935Z,1964.00
2024-05-09T06:46:59.350Z,1992.00
2024-05-09T06:47:56.880Z,2008.00
2024-05-09T06:48:57.018Z,2024.00
2024-05-09T06:49:56.782Z,2044.00
2024-05-09T06:50:56.818Z,2044.00
2024-05-09T06:51:56.766Z,2056.00
2024-05-09T06:52:56.775Z,2064.00
2024-05-09T06:53:56.730Z,2048.00
2024-05-09T06:54:56.733Z,2068.00
2024-05-09T06:55:56.795Z,2104.00
2024-05-09T06:56:56.704Z,2104.00
2024-05-09T06:57:56.682Z,2156.00
2024-05-09T06:58:56.738Z,2172.00
2024-05-09T06:59:56.724Z,2196.00
2024-05-09T07:00:56.736Z,2200.00
2024-05-09T07:01:56.691Z,2244.00
2024-05-09T07:02:56.885Z,2260.00
2024-05-09T07:03:56.772Z,2256.00
2024-05-09T07:04:56.862Z,2268.00
2024-05-09T07:05:56.697Z,2308.00
2024-05-09T07:06:56.600Z,2312.00
2024-05-09T07:07:56.655Z,2328.00
2024-05-09T07:08:56.575Z,2340.00
2024-05-09T07:09:56.570Z,2352.00
2024-05-09T07:10:56.637Z,2368.00
2024-05-09T07:11:56.719Z,2388.00
2024-05-09T07:12:56.530Z,2376.00
2024-05-09T07:13:56.588Z,2412.00
2024-05-09T07:14:56.524Z,2436.00
2024-05-09T07:15:56.489Z,2460.00
2024-05-09T07:16:56.569Z,2476.00
2024-05-09T07:17:56.938Z,2500.00
2024-05-09T07:18:56.695Z,2520.00
2024-05-09T07:19:56.478Z,2532.00
2024-05-09T07:20:56.451Z,2544.00
2024-05-09T07:21:56.419Z,2564.00
2024-05-09T07:22:56.444Z,2576.00
2024-05-09T07:23:56.440Z,2576.00
2024-05-09T07:24:56.393Z,2580.00
2024-05-09T07:25:56.387Z,2596.00
2024-05-09T07:26:56.377Z,2592.00
2024-05-09T07:27:56.373Z,2620.00
2024-05-09T07:28:56.431Z,2636.00
2024-05-09T07:29:56.339Z,2644.00
2024-05-09T07:30:56.332Z,2644.00
2024-05-09T07:31:56.359Z,2656.00
2024-05-09T07:32:56.426Z,2656.00
2024-05-09T07:33:56.347Z,2712.00
2024-05-09T07:34:56.398Z,2736.00
2024-05-09T07:35:56.270Z,2760.00
2024-05-09T07:36:56.297Z,2776.00
2024-05-09T07:37:56.308Z,2788.00
2024-05-09T07:38:56.244Z,2800.00
2024-05-09T07:39:56.232Z,2824.00
2024-05-09T07:40:56.263Z,2844.00
2024-05-09T07:41:56.234Z,2864.00
2024-05-09T07:42:56.198Z,2864.00
2024-05-09T07:43:56.203Z,2880.00
2024-05-09T07:44:58.726Z,2892.00
2024-05-09T07:45:58.371Z,2912.00
2024-05-09T07:48:14.004Z,2936.00
2024-05-09T07:51:32.675Z,2984.00
2024-05-09T07:53:37.000Z,3024.00
2024-05-09T07:53:51.339Z,3120.00
2024-05-09T07:54:24.019Z,3140.00
2024-05-09T07:55:23.974Z,3168.00
2024-05-09T07:56:24.677Z,3196.00
2024-05-09T07:57:23.821Z,3216.00
2024-05-09T07:58:23.803Z,3228.00
2024-05-09T07:59:23.774Z,3240.00
2024-05-09T08:00:30.824Z,3268.00
2024-05-09T08:01:23.893Z,3316.00
2024-05-09T08:02:23.904Z,3336.00
2024-05-09T08:03:24.227Z,3344.00
2024-05-09T08:04:26.577Z,3364.00
2024-05-09T08:05:23.811Z,3364.00
2024-05-09T08:06:23.708Z,3384.00
2024-05-09T08:07:23.729Z,3416.00
2024-05-09T08:08:23.705Z,3436.00
2024-05-09T08:09:23.668Z,3448.00
2024-05-09T08:10:28.545Z,3468.00
2024-05-09T08:11:23.706Z,3500.00
2024-05-09T08:12:23.641Z,3532.00
2024-05-09T08:13:23.660Z,3560.00
2024-05-09T08:14:23.623Z,3592.00
2024-05-09T08:15:23.617Z,3608.00
2024-05-09T08:16:23.866Z,3648.00
2024-05-09T08:17:23.696Z,3704.00
2024-05-09T08:18:23.726Z,3752.00
2024-05-09T08:19:23.593Z,3776.00
2024-05-09T08:20:30.937Z,3792.00
2024-05-09T08:21:23.551Z,3796.00
2024-05-09T08:22:23.530Z,3808.00
2024-05-09T08:23:23.528Z,3788.00
2024-05-09T08:24:23.531Z,3804.00
2024-05-09T08:25:23.515Z,3824.00
2024-05-09T08:26:23.487Z,3876.00
2024-05-09T08:27:23.486Z,3912.00
2024-05-09T08:28:23.525Z,3964.00
2024-05-09T08:29:23.503Z,4004.00
2024-05-09T08:30:30.106Z,4040.00
2024-05-09T08:31:23.562Z,4064.00
2024-05-09T08:32:23.528Z,4076.00
2024-05-09T08:33:23.551Z,4116.00
2024-05-09T08:34:23.538Z,4164.00
2024-05-09T08:35:23.402Z,4256.00
2024-05-09T08:36:23.378Z,4304.00
2024-05-09T08:37:26.207Z,4304.00
2024-05-09T08:38:23.366Z,4372.00
2024-05-09T08:39:23.342Z,4068.00
2024-05-09T08:40:30.740Z,4396.00
2024-05-09T08:41:23.333Z,4460.00
2024-05-09T08:42:23.327Z,4540.00
2024-05-09T08:43:23.595Z,4636.00
2024-05-09T08:44:23.301Z,4704.00
2024-05-09T08:45:23.283Z,4652.00
2024-05-09T08:46:23.377Z,4588.00
2024-05-09T08:47:23.383Z,4608.00
2024-05-09T08:48:23.520Z,4636.00
2024-05-09T08:49:23.299Z,4548.00
2024-05-09T08:50:32.060Z,4724.00
2024-05-09T08:51:23.215Z,5056.00
2024-05-09T08:52:23.218Z,5264.00
2024-05-09T08:53:23.191Z,5376.00
2024-05-09T08:54:23.213Z,5400.00
2024-05-09T08:55:23.177Z,5476.00
2024-05-09T08:56:23.185Z,5344.00
2024-05-09T08:57:23.175Z,4772.00
2024-05-09T08:58:23.152Z,4952.00
2024-05-09T08:59:23.120Z,5952.00
2024-05-09T09:00:33.434Z,5808.00
2024-05-09T09:01:23.173Z,6592.00
2024-05-09T09:02:23.498Z,7072.00
2024-05-09T09:03:23.102Z,6956.00
2024-05-09T09:04:23.199Z,5936.00
2024-05-09T09:05:23.228Z,4744.00
2024-05-09T09:06:23.065Z,4788.00
2024-05-09T09:07:23.169Z,5348.00
2024-05-09T09:08:23.036Z,6884.00
2024-05-09T09:09:23.025Z,7144.00
2024-05-09T09:10:29.711Z,6680.00
2024-05-09T09:11:23.026Z,6200.00
2024-05-09T09:12:22.985Z,8256.00
2024-05-09T09:13:23.040Z,7072.00
2024-05-09T09:14:22.985Z,7676.00
2024-05-09T09:15:22.957Z,9432.00
2024-05-09T09:16:23.157Z,9996.00
2024-05-09T09:17:23.123Z,9644.00
2024-05-09T09:18:22.963Z,11372.00
2024-05-09T09:19:23.293Z,12620.00
2024-05-09T09:20:28.704Z,15776.00
2024-05-09T09:21:22.907Z,23104.00
2024-05-09T09:22:22.894Z,28896.00
2024-05-09T09:23:22.907Z,31584.00
2024-05-09T09:24:22.869Z,31264.00
2024-05-09T09:25:22.848Z,32096.00
2024-05-09T09:26:22.838Z,33504.00
2024-05-09T09:27:22.821Z,34944.00
2024-05-09T09:28:22.946Z,38048.00
2024-05-09T09:29:22.806Z,39040.00
2024-05-09T09:30:34.042Z,38144.00
2024-05-09T09:31:22.866Z,36896.00
2024-05-09T09:32:22.807Z,36672.00
2024-05-09T09:33:22.970Z,37184.00
2024-05-09T09:34:22.927Z,35776.00
2024-05-09T09:35:22.778Z,35040.00
2024-05-09T09:36:22.736Z,37312.00
2024-05-09T09:37:22.784Z,39776.00
2024-05-09T09:38:22.852Z,38144.00
2024-05-09T09:39:22.749Z,38432.00
2024-05-09T09:40:30.979Z,39808.00
2024-05-09T09:41:22.740Z,38880.00
2024-05-09T09:42:22.663Z,38752.00
2024-05-09T09:43:23.072Z,40480.00
2024-05-09T09:44:22.661Z,41664.00
2024-05-09T09:45:22.801Z,46464.00
2024-05-09T09:46:22.659Z,49696.00
2024-05-09T09:47:22.650Z,50144.00
2024-05-09T09:48:23.220Z,52032.00
2024-05-09T09:49:22.636Z,54592.00
2024-05-09T09:50:27.955Z,59072.00
2024-05-09T09:51:22.567Z,58400.00
2024-05-09T09:52:22.645Z,55296.00
2024-05-09T09:53:22.613Z,50848.00
2024-05-09T09:54:22.532Z,46560.00
2024-05-09T09:55:22.747Z,46400.00
2024-05-09T09:56:22.513Z,48928.00
2024-05-09T09:57:22.514Z,51424.00
2024-05-09T09:58:22.556Z,53472.00
2024-05-09T09:59:22.483Z,52320.00
2024-05-09T10:00:27.410Z,51616.00
2024-05-09T10:01:22.572Z,57344.00
2024-05-09T10:02:22.713Z,58784.00
2024-05-09T10:03:22.576Z,54240.00
2024-05-09T10:04:22.535Z,53120.00
2024-05-09T10:05:22.616Z,51392.00
2024-05-09T10:06:22.433Z,49024.00
2024-05-09T10:07:22.482Z,52960.00
2024-05-09T10:08:22.379Z,53376.00
2024-05-09T10:09:22.368Z,48384.00
2024-05-09T10:10:29.918Z,45728.00
2024-05-09T10:11:22.475Z,43872.00
2024-05-09T10:12:22.421Z,45344.00
2024-05-09T10:13:22.462Z,49088.00
2024-05-09T10:14:22.348Z,45184.00
2024-05-09T10:15:22.305Z,43616.00
2024-05-09T10:16:22.445Z,43744.00
2024-05-09T10:17:22.342Z,43968.00
2024-05-09T10:18:22.317Z,43968.00
2024-05-09T10:19:22.326Z,42016.00
2024-05-09T10:20:27.908Z,41568.00
2024-05-09T10:21:22.259Z,40608.00
2024-05-09T10:22:22.262Z,41344.00
2024-05-09T10:23:22.224Z,41696.00
2024-05-09T10:24:22.223Z,42016.00
2024-05-09T10:25:22.478Z,42368.00
2024-05-09T10:26:22.217Z,42624.00
2024-05-09T10:27:22.203Z,43232.00
2024-05-09T10:28:22.278Z,44832.00
2024-05-09T10:29:22.162Z,45184.00
2024-05-09T10:30:29.710Z,46944.00
2024-05-09T10:31:22.170Z,47424.00
2024-05-09T10:32:22.285Z,46464.00
2024-05-09T10:33:22.172Z,46336.00
2024-05-09T10:34:22.409Z,46528.00
2024-05-09T10:35:22.110Z,47072.00
2024-05-09T10:36:22.123Z,48640.00
2024-05-09T10:37:22.227Z,46656.00
2024-05-09T10:38:22.078Z,46304.00
2024-05-09T10:39:22.068Z,47520.00
2024-05-09T10:40:26.617Z,48640.00
2024-05-09T10:41:22.079Z,46880.00
2024-05-09T10:42:22.031Z,46880.00
2024-05-09T10:43:22.155Z,47008.00
2024-05-09T10:44:22.022Z,49984.00
2024-05-09T10:45:21.994Z,51264.00
2024-05-09T10:46:22.099Z,51232.00
2024-05-09T10:47:22.050Z,50112.00
2024-05-09T10:48:22.031Z,47168.00
2024-05-09T10:49:22.087Z,44704.00
2024-05-09T10:50:25.644Z,43904.00
2024-05-09T10:51:21.979Z,43936.00
2024-05-09T10:52:21.963Z,42272.00
2024-05-09T10:53:21.938Z,43200.00
2024-05-09T10:54:21.947Z,44960.00
2024-05-09T10:55:22.243Z,43808.00
2024-05-09T10:56:21.887Z,42144.00
2024-05-09T10:57:21.871Z,41824.00
2024-05-09T10:58:21.909Z,46272.00
2024-05-09T10:59:21.856Z,50240.00
2024-05-09T11:00:27.787Z,49728.00
2024-05-09T11:01:21.902Z,46272.00
2024-05-09T11:02:21.952Z,47744.00
2024-05-09T11:03:21.869Z,47776.00
2024-05-09T11:04:21.938Z,42752.00
2024-05-09T11:05:21.993Z,38272.00
2024-05-09T11:06:21.776Z,33600.00
2024-05-09T11:07:21.862Z,25280.00
2024-05-09T11:08:21.764Z,20256.00
2024-05-09T11:09:21.748Z,18752.00
2024-05-09T11:10:27.752Z,18432.00
2024-05-09T11:11:21.809Z,19200.00
2024-05-09T11:12:23.641Z,20512.00
2024-05-09T11:13:21.756Z,14784.00
2024-05-09T11:14:21.685Z,16896.00
2024-05-09T11:15:21.678Z,16864.00
2024-05-09T11:16:21.898Z,9828.00
2024-05-09T11:17:21.732Z,6896.00
2024-05-09T11:18:24.764Z,4976.00
2024-05-09T11:19:21.777Z,5020.00
2024-05-09T11:20:29.096Z,7196.00
2024-05-09T11:21:21.634Z,5596.00
2024-05-09T11:22:21.726Z,13212.00
2024-05-09T11:23:21.597Z,13596.00
2024-05-09T11:24:21.592Z,13508.00
2024-05-09T11:25:21.615Z,12960.00
2024-05-09T11:26:21.664Z,12752.00
2024-05-09T11:27:21.567Z,12556.00
2024-05-09T11:28:21.570Z,12624.00
2024-05-09T11:29:21.530Z,12324.00
2024-05-09T11:30:29.519Z,12112.00
2024-05-09T11:31:21.891Z,11828.00
2024-05-09T11:32:21.525Z,11968.00
2024-05-09T11:33:21.513Z,12044.00
2024-05-09T11:34:21.532Z,12044.00
2024-05-09T11:35:21.504Z,12076.00
2024-05-09T11:36:21.466Z,12232.00
2024-05-09T11:37:21.567Z,11972.00
2024-05-09T11:38:21.431Z,11156.00
2024-05-09T11:39:21.427Z,5020.00
2024-05-09T11:40:25.678Z,8728.00
2024-05-09T11:41:21.409Z,4896.00
2024-05-09T11:42:21.400Z,5168.00
2024-05-09T11:43:21.467Z,5152.00
2024-05-09T11:44:21.374Z,5488.00
2024-05-09T11:45:21.391Z,6532.00
2024-05-09T11:46:21.540Z,5872.00
2024-05-09T11:47:21.408Z,8524.00
2024-05-09T11:48:21.543Z,4804.00
2024-05-09T11:49:23.877Z,6388.00
2024-05-09T11:50:27.286Z,8296.00
2024-05-09T11:51:21.314Z,4356.00
2024-05-09T11:52:21.334Z,4196.00
2024-05-09T11:53:21.311Z,4148.00
2024-05-09T11:54:21.294Z,4328.00
2024-05-09T11:55:23.205Z,4472.00
2024-05-09T11:56:21.251Z,4896.00
2024-05-09T11:57:21.231Z,8960.00
2024-05-09T11:58:21.436Z,9868.00
2024-05-09T11:59:21.236Z,9028.00
2024-05-09T12:00:29.472Z,8960.00
2024-05-09T12:01:22.136Z,4920.00
2024-05-09T12:02:21.244Z,5900.00
2024-05-09T12:03:21.254Z,9620.00
2024-05-09T12:04:21.334Z,9324.00
2024-05-09T12:05:21.381Z,9312.00
2024-05-09T12:06:21.140Z,5988.00
2024-05-09T12:07:21.214Z,9640.00
2024-05-09T12:08:21.136Z,9520.00
2024-05-09T12:09:21.119Z,4996.00
2024-05-09T12:10:26.067Z,4756.00
2024-05-09T12:11:21.193Z,4740.00
2024-05-09T12:12:21.093Z,5148.00
2024-05-09T12:13:21.247Z,6200.00
2024-05-09T12:14:21.056Z,4904.00
2024-05-09T12:15:21.048Z,4876.00
2024-05-09T12:16:21.149Z,5000.00
2024-05-09T12:17:21.175Z,5040.00
2024-05-09T12:18:21.018Z,7640.00
2024-05-09T12:19:21.028Z,8448.00
2024-05-09T12:20:28.651Z,9928.00
2024-05-09T12:21:20.993Z,9616.00
2024-05-09T12:22:21.122Z,9248.00
2024-05-09T12:23:20.965Z,9068.00
2024-05-09T12:24:20.940Z,9012.00
2024-05-09T12:25:20.976Z,9060.00
2024-05-09T12:26:20.931Z,9144.00
2024-05-09T12:27:20.929Z,9340.00
2024-05-09T12:28:20.945Z,9604.00